Time;durP1;ratioP1;P1;durP2;ratioP2;P2;SDS_P1;SDS_P2;PMS_P1;PMS_P2;Temp;Humidity;BMP_temperature;BMP_pressure;BME280_temperature;BME280_humidity;BME280_pressure;Samples;Min_cycle;Max_cycle;Signal;HPM_P1;HPM_P2
2022/11/14 00:00:37;;;;;;;2.10;1.70;;;3.60;99.90;;;;;;5104272;28;20741;-81
2022/11/14 00:03:06;;;;;;;2.30;2.15;;;3.50;99.90;;;;;;5108328;28;20194;-81
2022/11/14 00:05:32;;;;;;;4.57;2.67;;;3.60;99.90;;;;;;5100654;28;20263;-81
2022/11/14 00:08:00;;;;;;;1.48;1.25;;;3.50;99.90;;;;;;5105139;28;20712;-81
2022/11/14 00:10:27;;;;;;;0.85;0.85;;;3.50;99.90;;;;;;5099832;28;20211;-81
2022/11/14 00:12:54;;;;;;;1.80;1.70;;;3.50;99.90;;;;;;5087931;28;20301;-81
2022/11/14 00:15:21;;;;;;;1.73;1.45;;;3.80;99.90;;;;;;5093879;28;20226;-81
2022/11/14 00:17:48;;;;;;;3.70;2.17;;;3.40;99.90;;;;;;5106983;28;20251;-81
2022/11/14 00:20:15;;;;;;;2.28;1.80;;;3.30;99.90;;;;;;5092497;28;20221;-81
2022/11/14 00:22:42;;;;;;;2.20;1.95;;;3.40;99.90;;;;;;5108083;28;20281;-82
2022/11/14 00:25:11;;;;;;;1.55;1.40;;;3.80;99.90;;;;;;5090405;28;20198;-81
2022/11/14 00:27:38;;;;;;;4.05;2.95;;;3.50;99.90;;;;;;5100991;28;20273;-83
2022/11/14 00:30:06;;;;;;;4.82;3.20;;;3.50;99.90;;;;;;5101722;28;20285;-81
2022/11/14 00:32:33;;;;;;;4.75;3.55;;;3.60;99.90;;;;;;5107889;28;20683;-82
2022/11/14 00:35:00;;;;;;;3.00;2.20;;;3.60;99.90;;;;;;5104192;28;20202;-81
2022/11/14 00:37:27;;;;;;;2.42;1.40;;;3.40;99.90;;;;;;5090678;28;20233;-82
2022/11/14 00:39:53;;;;;;;2.08;1.88;;;4.40;99.90;;;;;;5089113;28;20206;-81
2022/11/14 00:42:21;;;;;;;3.28;3.03;;;3.40;99.90;;;;;;5103272;28;20202;-81
2022/11/14 00:44:48;;;;;;;0.88;0.88;;;3.40;99.90;;;;;;5106795;28;20224;-81
2022/11/14 00:47:15;;;;;;;2.70;2.08;;;3.10;99.90;;;;;;5099766;28;20566;-81
2022/11/14 00:49:42;;;;;;;3.88;2.40;;;3.00;99.90;;;;;;5088084;28;20203;-81
2022/11/14 00:52:11;;;;;;;2.50;1.70;;;2.90;99.90;;;;;;5101189;28;20205;-81
2022/11/14 00:54:38;;;;;;;2.35;1.83;;;2.80;99.90;;;;;;5087677;28;20289;-81
2022/11/14 00:57:05;;;;;;;1.60;1.50;;;3.00;99.90;;;;;;5106018;28;20232;-81
2022/11/14 00:59:33;;;;;;;4.10;3.40;;;3.00;99.90;;;;;;5100247;28;20683;-81
2022/11/14 01:02:00;;;;;;;6.13;2.35;;;3.10;99.90;;;;;;5103021;28;20208;-81
2022/11/14 01:04:27;;;;;;;2.35;1.17;;;3.20;99.90;;;;;;5107735;28;20220;-81
2022/11/14 01:06:54;;;;;;;6.25;2.08;;;3.20;99.90;;;;;;5088351;28;20222;-81
2022/11/14 01:09:20;;;;;;;1.63;1.52;;;3.00;99.90;;;;;;5090836;28;20783;-81
2022/11/14 01:11:47;;;;;;;1.55;1.45;;;2.80;99.90;;;;;;5104839;28;20229;-81
2022/11/14 01:14:14;;;;;;;1.33;1.23;;;2.70;99.90;;;;;;5093403;28;20803;-81
2022/11/14 01:16:42;;;;;;;1.00;0.95;;;2.80;99.90;;;;;;5108931;28;20313;-81
2022/11/14 01:19:09;;;;;;;5.53;1.75;;;2.80;99.90;;;;;;5090955;28;20197;-82
2022/11/14 01:21:36;;;;;;;3.30;2.33;;;2.90;99.90;;;;;;5102664;28;20201;-81
2022/11/14 01:24:04;;;;;;;2.33;2.22;;;2.90;99.90;;;;;;5099568;28;20211;-81
2022/11/14 01:26:30;;;;;;;4.20;2.50;;;2.70;99.90;;;;;;5091183;28;20286;-83
2022/11/14 01:28:57;;;;;;;2.17;1.98;;;2.60;99.90;;;;;;5107124;28;20603;-81
2022/11/14 01:31:25;;;;;;;8.60;1.70;;;2.50;99.90;;;;;;5110458;28;20205;-81
2022/11/14 01:33:53;;;;;;;6.05;2.40;;;2.50;99.90;;;;;;5094199;28;20197;-81
2022/11/14 01:36:21;;;;;;;1.55;1.40;;;2.70;99.90;;;;;;5095468;28;20252;-82
2022/11/14 01:38:52;;;;;;;2.80;1.65;;;2.70;99.90;;;;;;5091939;28;20199;-81
2022/11/14 01:41:19;;;;;;;4.47;2.78;;;2.60;99.90;;;;;;5102385;28;20676;-81
2022/11/14 01:43:46;;;;;;;1.27;1.17;;;2.80;99.90;;;;;;5091007;28;20556;-81
2022/11/14 01:46:15;;;;;;;1.70;1.60;;;2.80;99.90;;;;;;5090196;28;20199;-82
2022/11/14 01:48:45;;;;;;;9.30;3.20;;;2.80;99.90;;;;;;5090392;28;20195;-82
2022/11/14 01:51:25;;;;;;;2.63;2.40;;;3.10;99.90;;;;;;5094832;28;20190;-81
2022/11/14 01:53:55;;;;;;;1.95;1.27;;;3.00;99.90;;;;;;5099613;28;20243;-82
2022/11/14 01:56:26;;;;;;;4.70;1.85;;;3.20;99.90;;;;;;5107617;28;20305;-81
2022/11/14 01:58:58;;;;;;;8.93;2.17;;;3.30;99.90;;;;;;5103276;28;20190;-81
2022/11/14 02:01:25;;;;;;;1.27;1.00;;;3.20;99.90;;;;;;5100687;28;20198;-81
2022/11/14 02:03:54;;;;;;;3.05;1.95;;;3.20;99.90;;;;;;5097469;28;20193;-81
2022/11/14 02:06:25;;;;;;;7.25;3.60;;;3.40;99.90;;;;;;5091944;28;20349;-81
2022/11/14 02:08:54;;;;;;;2.17;2.03;;;3.40;99.90;;;;;;5091134;28;20187;-81
2022/11/14 02:11:21;;;;;;;3.63;2.47;;;3.60;99.90;;;;;;5094633;28;20190;-81
2022/11/14 02:13:48;;;;;;;3.05;1.60;;;3.60;99.90;;;;;;5110359;28;20186;-81
2022/11/14 02:16:16;;;;;;;2.58;2.08;;;3.70;99.90;;;;;;5096968;28;20305;-81
2022/11/14 02:18:43;;;;;;;2.58;2.38;;;3.80;99.90;;;;;;5110187;28;20193;-81
2022/11/14 02:21:11;;;;;;;3.15;1.95;;;3.90;99.90;;;;;;5103459;28;20269;-81
2022/11/14 02:23:38;;;;;;;4.45;3.10;;;3.90;99.90;;;;;;5096384;28;20198;-81
2022/11/14 02:26:05;;;;;;;2.67;2.33;;;3.80;99.90;;;;;;5107341;28;20309;-81
2022/11/14 02:28:32;;;;;;;2.20;2.00;;;3.80;99.90;;;;;;5105825;28;20194;-81
2022/11/14 02:30:59;;;;;;;5.25;1.98;;;3.70;99.90;;;;;;5090657;28;20190;-81
2022/11/14 02:33:26;;;;;;;3.17;1.90;;;3.70;99.90;;;;;;5092026;28;20209;-81
2022/11/14 02:35:53;;;;;;;3.17;2.47;;;3.90;99.90;;;;;;5089140;28;20195;-81
2022/11/14 02:38:21;;;;;;;2.45;1.48;;;3.90;99.90;;;;;;5101325;28;20280;-82
2022/11/14 02:40:48;;;;;;;2.85;2.40;;;4.00;99.90;;;;;;5093558;28;20202;-81
2022/11/14 02:43:15;;;;;;;2.80;2.05;;;3.80;99.90;;;;;;5103835;28;20581;-81
2022/11/14 02:45:43;;;;;;;3.17;1.55;;;3.80;99.90;;;;;;5109190;28;20639;-80
2022/11/14 02:48:10;;;;;;;3.00;2.25;;;3.70;99.90;;;;;;5093824;28;20198;-82
2022/11/14 02:50:37;;;;;;;1.90;1.20;;;3.80;99.90;;;;;;5097082;28;20198;-81
2022/11/14 02:53:04;;;;;;;1.17;1.10;;;3.70;99.90;;;;;;5108945;28;20190;-82
2022/11/14 02:55:32;;;;;;;2.30;2.08;;;3.70;99.90;;;;;;5099635;28;20198;-82
2022/11/14 02:57:59;;;;;;;4.68;1.80;;;3.80;99.90;;;;;;5089919;28;20703;-81
2022/11/14 03:00:26;;;;;;;1.45;0.90;;;3.60;99.90;;;;;;5103270;28;20202;-81
2022/11/14 03:02:54;;;;;;;1.85;1.75;;;3.70;99.90;;;;;;5094698;28;20194;-81
2022/11/14 03:05:20;;;;;;;2.25;1.15;;;3.70;99.90;;;;;;5108537;28;20197;-82
2022/11/14 03:07:48;;;;;;;4.22;1.95;;;3.80;99.90;;;;;;5097008;28;20271;-82
2022/11/14 03:10:14;;;;;;;1.92;1.83;;;3.70;99.90;;;;;;5089708;28;20206;-81
2022/11/14 03:12:43;;;;;;;3.38;3.03;;;3.80;99.90;;;;;;5089031;28;20198;-81
2022/11/14 03:15:10;;;;;;;4.07;2.08;;;3.80;99.90;;;;;;5094556;28;20536;-81
2022/11/14 03:17:38;;;;;;;2.88;1.30;;;3.80;99.90;;;;;;5108522;28;20218;-81
2022/11/14 03:20:06;;;;;;;2.95;1.27;;;3.70;99.90;;;;;;5107130;28;20190;-82
2022/11/14 03:22:33;;;;;;;3.47;3.17;;;3.60;99.90;;;;;;5088757;28;20211;-81
2022/11/14 03:25:00;;;;;;;2.33;2.22;;;3.60;99.90;;;;;;5100429;28;20232;-81
2022/11/14 03:27:27;;;;;;;4.50;3.30;;;3.50;99.90;;;;;;5090887;28;20844;-81
2022/11/14 03:29:56;;;;;;;5.50;2.88;;;3.60;99.90;;;;;;5100185;28;20198;-81
2022/11/14 03:32:23;;;;;;;1.63;1.17;;;3.60;99.90;;;;;;5104836;28;20569;-81
2022/11/14 03:34:50;;;;;;;2.88;1.85;;;3.60;99.90;;;;;;5106612;28;20190;-81
2022/11/14 03:37:17;;;;;;;2.15;1.58;;;3.60;99.90;;;;;;5104605;28;20233;-81
2022/11/14 03:39:44;;;;;;;6.68;2.25;;;3.60;99.90;;;;;;5089585;28;20202;-81
2022/11/14 03:42:11;;;;;;;2.90;1.92;;;3.50;99.90;;;;;;5105571;28;20197;-82
2022/11/14 03:44:39;;;;;;;3.22;2.22;;;3.50;99.90;;;;;;5101341;28;20535;-80
2022/11/14 03:47:08;;;;;;;0.65;0.65;;;3.50;99.90;;;;;;5088886;28;20202;-81
2022/11/14 03:49:36;;;;;;;1.27;0.93;;;3.60;99.90;;;;;;5090189;28;20259;-80
2022/11/14 03:52:03;;;;;;;2.47;2.28;;;3.40;99.90;;;;;;5090282;28;20709;-81
2022/11/14 03:54:29;;;;;;;2.83;2.45;;;3.40;99.90;;;;;;5088889;28;20199;-81
2022/11/14 03:56:56;;;;;;;1.65;1.55;;;3.50;99.90;;;;;;5094383;28;20245;-82
2022/11/14 03:59:24;;;;;;;1.27;1.08;;;3.50;99.90;;;;;;5096932;28;20310;-81
2022/11/14 04:01:50;;;;;;;4.03;2.72;;;3.50;99.90;;;;;;5100954;28;20250;-81
2022/11/14 04:04:18;;;;;;;4.20;1.85;;;3.50;99.90;;;;;;5106612;28;20204;-81
2022/11/14 04:06:45;;;;;;;0.65;0.65;;;3.50;99.90;;;;;;5099062;28;20201;-81
2022/11/14 04:09:12;;;;;;;2.65;2.33;;;3.50;99.90;;;;;;5108002;28;20209;-81
2022/11/14 04:11:39;;;;;;;2.10;1.70;;;3.40;99.90;;;;;;5096341;28;20225;-81
2022/11/14 04:14:06;;;;;;;4.50;1.75;;;3.40;99.90;;;;;;5107619;28;20206;-82
2022/11/14 04:16:33;;;;;;;1.42;1.27;;;3.40;99.90;;;;;;5090789;28;20221;-81
2022/11/14 04:18:59;;;;;;;4.97;2.88;;;3.40;99.90;;;;;;5087821;28;20190;-81
2022/11/14 04:21:28;;;;;;;3.83;3.22;;;3.50;99.90;;;;;;5091218;28;20281;-80
2022/11/14 04:23:54;;;;;;;8.13;2.67;;;3.50;99.90;;;;;;5087594;28;20206;-81
2022/11/14 04:26:21;;;;;;;2.25;1.73;;;3.50;99.90;;;;;;5088570;28;20845;-81
2022/11/14 04:28:48;;;;;;;2.55;2.25;;;3.40;99.90;;;;;;5095364;28;20198;-82
2022/11/14 04:31:15;;;;;;;1.35;1.17;;;3.30;99.90;;;;;;5107842;28;20198;-81
2022/11/14 04:33:42;;;;;;;2.38;1.45;;;3.20;99.90;;;;;;5099308;28;20285;-81
2022/11/14 04:36:09;;;;;;;2.33;2.13;;;3.20;99.90;;;;;;5102400;28;20305;-81
2022/11/14 04:38:38;;;;;;;7.30;4.07;;;3.20;99.90;;;;;;5093764;28;20224;-80
2022/11/14 04:41:05;;;;;;;2.97;2.45;;;3.20;99.90;;;;;;5096751;28;20194;-82
2022/11/14 04:43:32;;;;;;;2.08;1.95;;;3.30;99.90;;;;;;5087791;28;20193;-82
2022/11/14 04:45:59;;;;;;;4.32;1.50;;;3.20;99.90;;;;;;5093124;28;20663;-81
2022/11/14 04:48:25;;;;;;;2.65;1.85;;;3.30;99.90;;;;;;5110080;28;20235;-81
2022/11/14 04:50:52;;;;;;;3.88;1.95;;;3.40;99.90;;;;;;5103078;28;20194;-82
2022/11/14 04:53:19;;;;;;;5.47;2.67;;;3.40;99.90;;;;;;5112059;28;20626;-82
2022/11/14 04:55:47;;;;;;;1.15;1.05;;;3.40;99.90;;;;;;5099859;28;20204;-82
2022/11/14 04:58:14;;;;;;;1.65;1.35;;;3.30;99.90;;;;;;5111206;28;20321;-81
2022/11/14 05:00:41;;;;;;;1.25;0.95;;;3.40;99.90;;;;;;5093845;28;20562;-82
2022/11/14 05:03:08;;;;;;;1.77;1.67;;;3.40;99.90;;;;;;5097850;28;20221;-82
2022/11/14 05:05:35;;;;;;;1.85;1.10;;;3.30;99.90;;;;;;5109314;28;20216;-81
2022/11/14 05:08:02;;;;;;;1.65;1.55;;;3.30;99.90;;;;;;5104258;28;20285;-81
2022/11/14 05:10:29;;;;;;;1.70;1.50;;;3.30;99.90;;;;;;5109277;28;20277;-82
2022/11/14 05:12:57;;;;;;;1.90;1.80;;;3.20;99.90;;;;;;5111375;28;20194;-82
2022/11/14 05:15:24;;;;;;;1.35;0.93;;;3.20;99.90;;;;;;5101305;28;20293;-81
2022/11/14 05:17:50;;;;;;;2.15;1.20;;;3.30;99.90;;;;;;5107104;28;20450;-82
2022/11/14 05:20:17;;;;;;;6.15;2.20;;;3.30;99.90;;;;;;5106429;28;20205;-82
2022/11/14 05:22:44;;;;;;;1.63;1.42;;;3.40;99.90;;;;;;5091913;28;20615;-82
2022/11/14 05:25:11;;;;;;;1.95;1.52;;;3.40;99.90;;;;;;5096191;28;20229;-82
2022/11/14 05:27:38;;;;;;;6.25;1.38;;;3.40;99.90;;;;;;5100842;28;20294;-83
2022/11/14 05:30:07;;;;;;;3.22;2.90;;;3.50;99.90;;;;;;5100819;28;20201;-81
2022/11/14 05:32:34;;;;;;;2.03;1.05;;;3.40;99.90;;;;;;5111067;28;20197;-81
2022/11/14 05:35:01;;;;;;;2.08;1.85;;;3.50;99.90;;;;;;5098189;28;20620;-81
2022/11/14 05:37:27;;;;;;;2.58;2.33;;;3.40;99.90;;;;;;5109268;28;20213;-81
2022/11/14 05:39:54;;;;;;;3.28;2.00;;;3.40;99.90;;;;;;5098008;28;20196;-81
2022/11/14 05:42:21;;;;;;;3.72;2.45;;;3.50;99.90;;;;;;5098987;28;20263;-81
2022/11/14 05:44:48;;;;;;;2.35;1.67;;;3.50;99.90;;;;;;5098990;28;20273;-81
2022/11/14 05:47:16;;;;;;;1.83;1.33;;;3.50;99.90;;;;;;5099917;28;20190;-81
2022/11/14 05:49:43;;;;;;;2.95;1.98;;;3.50;99.90;;;;;;5100852;28;20622;-81
2022/11/14 05:52:10;;;;;;;2.60;1.58;;;3.50;99.90;;;;;;5091449;28;20278;-81
2022/11/14 05:54:36;;;;;;;4.55;1.75;;;3.50;99.90;;;;;;5112131;27;20597;-81
2022/11/14 05:57:03;;;;;;;5.53;3.30;;;3.60;99.90;;;;;;5109101;28;20225;-81
2022/11/14 05:59:30;;;;;;;3.92;2.83;;;3.70;99.90;;;;;;5101186;28;20204;-80
2022/11/14 06:01:57;;;;;;;4.18;2.50;;;3.70;99.90;;;;;;5104114;28;20195;-81
2022/11/14 06:04:26;;;;;;;2.42;1.40;;;3.70;99.90;;;;;;5108286;28;20893;-81
2022/11/14 06:06:52;;;;;;;0.90;0.85;;;3.70;99.90;;;;;;5089466;28;20285;-81
2022/11/14 06:09:19;;;;;;;2.40;1.90;;;3.70;99.90;;;;;;5101045;28;20297;-81
2022/11/14 06:11:46;;;;;;;1.55;1.45;;;3.80;99.90;;;;;;5098838;28;20200;-80
2022/11/14 06:14:13;;;;;;;3.67;1.52;;;3.70;99.90;;;;;;5110067;28;20230;-83
2022/11/14 06:16:40;;;;;;;1.98;1.88;;;3.80;99.90;;;;;;5096449;28;20206;-81
2022/11/14 06:19:07;;;;;;;2.50;2.30;;;3.80;99.90;;;;;;5097647;27;20224;-82
2022/11/14 06:21:35;;;;;;;0.98;0.77;;;3.80;99.90;;;;;;5094173;28;20329;-80
2022/11/14 06:24:01;;;;;;;4.00;1.05;;;3.70;99.90;;;;;;5094995;28;20194;-81
2022/11/14 06:26:30;;;;;;;10.93;3.17;;;4.20;99.90;;;;;;5107247;28;20296;-83
2022/11/14 06:28:57;;;;;;;1.75;1.70;;;3.90;99.90;;;;;;5099365;28;20198;-81
2022/11/14 06:31:24;;;;;;;1.88;1.55;;;4.00;99.90;;;;;;5100281;28;20224;-82
2022/11/14 06:33:51;;;;;;;2.05;1.52;;;4.00;99.90;;;;;;5095094;28;20198;-81
2022/11/14 06:36:19;;;;;;;2.63;1.95;;;4.10;99.90;;;;;;5098166;28;20674;-81
2022/11/14 06:38:47;;;;;;;1.88;1.50;;;4.00;99.90;;;;;;5093895;27;20753;-82
2022/11/14 06:41:16;;;;;;;1.58;1.45;;;4.00;99.90;;;;;;5108874;28;20202;-82
2022/11/14 06:43:45;;;;;;;1.08;1.08;;;4.00;99.90;;;;;;5108354;28;20648;-81
2022/11/14 06:46:14;;;;;;;1.90;1.80;;;4.20;99.90;;;;;;5108468;28;20206;-80
2022/11/14 06:48:42;;;;;;;1.35;1.25;;;4.20;99.90;;;;;;5108533;28;20271;-81
2022/11/14 06:51:11;;;;;;;2.45;2.25;;;4.20;99.90;;;;;;5109429;28;20312;-82
2022/11/14 06:53:38;;;;;;;2.53;1.27;;;4.60;99.90;;;;;;5109009;28;20618;-81
2022/11/14 06:56:08;;;;;;;4.63;2.63;;;4.20;99.90;;;;;;5108999;28;20229;-81
2022/11/14 06:58:37;;;;;;;2.55;2.45;;;4.10;99.90;;;;;;5107086;28;20790;-80
2022/11/14 07:01:05;;;;;;;4.53;3.30;;;4.20;99.90;;;;;;5088216;28;20198;-81
2022/11/14 07:03:32;;;;;;;1.67;1.35;;;4.30;99.90;;;;;;5090657;28;20202;-81
2022/11/14 07:05:59;;;;;;;2.90;2.70;;;4.20;99.90;;;;;;5104659;28;20214;-81
2022/11/14 07:08:26;;;;;;;4.65;0.82;;;4.40;99.90;;;;;;5106671;28;20683;-81
2022/11/14 07:10:53;;;;;;;1.63;1.50;;;4.30;99.90;;;;;;5108114;28;20217;-81
2022/11/14 07:13:21;;;;;;;2.50;1.48;;;4.20;99.90;;;;;;5099606;28;20289;-83
2022/11/14 07:15:52;;;;;;;1.88;1.70;;;4.30;99.90;;;;;;5088391;28;20198;-81
2022/11/14 07:18:19;;;;;;;3.13;1.55;;;4.30;99.90;;;;;;5107232;28;20660;-81
2022/11/14 07:20:46;;;;;;;4.22;1.67;;;4.40;99.90;;;;;;5104318;28;20240;-81
2022/11/14 07:23:13;;;;;;;1.85;0.93;;;4.50;99.90;;;;;;5088180;28;20729;-82
2022/11/14 07:25:40;;;;;;;1.67;1.00;;;4.60;99.90;;;;;;5097615;28;20214;-81
2022/11/14 07:28:07;;;;;;;1.45;1.35;;;4.40;99.90;;;;;;5093000;28;20392;-81
2022/11/14 07:30:35;;;;;;;1.20;1.10;;;4.50;99.90;;;;;;5105101;28;20308;-81
2022/11/14 07:33:02;;;;;;;1.75;1.65;;;4.60;99.90;;;;;;5088610;28;20202;-81
2022/11/14 07:35:28;;;;;;;1.48;1.38;;;4.50;99.90;;;;;;5107153;28;20186;-80
2022/11/14 07:38:02;;;;;;;0.82;0.82;;;4.50;99.90;;;;;;5104638;28;20234;-81
2022/11/14 07:40:29;;;;;;;6.00;2.83;;;5.90;99.90;;;;;;5089842;28;20428;-81
2022/11/14 07:42:59;;;;;;;1.60;1.35;;;4.50;99.90;;;;;;5091424;28;20286;-81
2022/11/14 07:45:26;;;;;;;1.02;0.88;;;4.50;99.90;;;;;;5098859;28;20213;-81
2022/11/14 07:47:57;;;;;;;1.80;1.67;;;4.60;99.90;;;;;;5107557;28;20289;-80
2022/11/14 07:50:24;;;;;;;1.13;0.90;;;4.60;99.90;;;;;;5093565;28;20201;-82
2022/11/14 07:52:51;;;;;;;1.00;0.95;;;4.70;99.90;;;;;;5108326;28;20624;-81
2022/11/14 07:55:18;;;;;;;1.55;1.45;;;4.60;99.90;;;;;;5092275;28;20274;-81
2022/11/14 07:57:45;;;;;;;2.17;1.70;;;4.70;99.90;;;;;;5099927;28;20265;-82
2022/11/14 08:00:14;;;;;;;4.35;2.38;;;5.70;99.90;;;;;;5090898;28;20201;-81
2022/11/14 08:02:41;;;;;;;2.92;1.63;;;4.80;99.90;;;;;;5104613;28;20243;-81
2022/11/14 08:05:09;;;;;;;4.93;2.50;;;4.90;99.90;;;;;;5098845;28;20647;-81
2022/11/14 08:07:36;;;;;;;2.35;1.55;;;4.80;99.90;;;;;;5105013;28;20657;-82
2022/11/14 08:10:03;;;;;;;2.22;1.83;;;4.90;99.90;;;;;;5104492;28;20251;-81
2022/11/14 08:12:30;;;;;;;1.58;1.20;;;5.10;99.90;;;;;;5107356;28;20202;-81
2022/11/14 08:14:57;;;;;;;1.25;1.25;;;5.20;99.90;;;;;;5093633;28;20273;-82
2022/11/14 08:17:24;;;;;;;2.58;2.28;;;5.20;99.90;;;;;;5104227;28;20301;-81
2022/11/14 08:19:51;;;;;;;1.45;1.42;;;5.30;99.90;;;;;;5106074;28;20826;-83
2022/11/14 08:22:19;;;;;;;2.30;1.73;;;5.10;99.90;;;;;;5103394;28;20289;-81
2022/11/14 08:24:46;;;;;;;5.03;1.88;;;5.50;99.90;;;;;;5104929;28;20203;-82
2022/11/14 08:27:13;;;;;;;2.70;1.25;;;5.40;99.90;;;;;;5104958;28;20199;-80
2022/11/14 08:29:40;;;;;;;1.70;1.60;;;5.60;99.90;;;;;;5102651;28;20289;-80
2022/11/14 08:32:07;;;;;;;1.35;1.08;;;5.40;99.90;;;;;;5110073;28;20676;-80
2022/11/14 08:34:35;;;;;;;6.07;1.55;;;5.60;99.90;;;;;;5103733;28;20186;-80
2022/11/14 08:37:03;;;;;;;2.88;1.45;;;5.80;99.90;;;;;;5104130;28;20203;-79
2022/11/14 08:39:31;;;;;;;1.23;0.93;;;5.70;99.90;;;;;;5096554;28;20226;-80
2022/11/14 08:41:58;;;;;;;1.15;1.02;;;5.80;99.90;;;;;;5091640;28;20235;-80
2022/11/14 08:44:25;;;;;;;1.35;1.25;;;5.90;99.90;;;;;;5095677;28;20274;-79
2022/11/14 08:46:52;;;;;;;3.30;1.60;;;6.00;99.90;;;;;;5103469;28;20277;-79
2022/11/14 08:49:18;;;;;;;0.95;0.95;;;6.50;99.90;;;;;;5107683;28;20496;-80
2022/11/14 08:51:45;;;;;;;0.68;0.68;;;6.10;99.90;;;;;;5106879;28;20281;-79
2022/11/14 08:54:12;;;;;;;2.80;1.35;;;6.20;99.90;;;;;;5091794;28;20642;-80
2022/11/14 08:56:40;;;;;;;1.58;1.23;;;6.40;99.90;;;;;;5103125;28;20217;-80
2022/11/14 08:59:07;;;;;;;0.95;0.77;;;6.30;99.90;;;;;;5097377;28;20506;-80
2022/11/14 09:01:34;;;;;;;0.95;0.65;;;6.40;99.90;;;;;;5096847;28;20643;-80
2022/11/14 09:04:01;;;;;;;1.10;0.55;;;6.70;99.90;;;;;;5109305;28;20198;-80
2022/11/14 09:06:28;;;;;;;1.35;1.27;;;6.60;99.90;;;;;;5099634;28;20572;-80
2022/11/14 09:08:55;;;;;;;1.08;0.63;;;6.70;99.90;;;;;;5094935;28;20396;-80
2022/11/14 09:11:22;;;;;;;1.13;0.70;;;6.80;99.90;;;;;;5098186;28;20279;-80
2022/11/14 09:13:50;;;;;;;0.40;0.40;;;6.70;99.90;;;;;;5102642;28;20290;-80
2022/11/14 09:16:17;;;;;;;1.35;0.85;;;6.80;99.90;;;;;;5097489;28;20284;-82
2022/11/14 09:18:44;;;;;;;1.95;1.30;;;6.60;99.90;;;;;;5102871;28;20668;-80
2022/11/14 09:21:11;;;;;;;0.50;0.50;;;7.00;99.90;;;;;;5100375;28;20751;-79
2022/11/14 09:23:38;;;;;;;1.25;0.68;;;7.10;99.90;;;;;;5105647;28;20197;-80
2022/11/14 09:26:06;;;;;;;0.52;0.47;;;7.00;99.90;;;;;;5107262;28;20702;-80
2022/11/14 09:28:33;;;;;;;0.90;0.70;;;7.10;99.90;;;;;;5101678;27;20193;-80
2022/11/14 09:31:02;;;;;;;3.78;1.23;;;6.90;99.90;;;;;;5109776;28;20213;-80
2022/11/14 09:33:29;;;;;;;1.33;1.27;;;7.20;99.90;;;;;;5104361;28;20274;-79
2022/11/14 09:35:59;;;;;;;0.60;0.60;;;7.20;99.90;;;;;;5103179;28;20196;-80
2022/11/14 09:38:26;;;;;;;0.70;0.70;;;7.30;99.90;;;;;;5106767;28;20304;-80
2022/11/14 09:41:08;;;;;;;0.50;0.50;;;7.30;99.90;;;;;;5105399;28;20251;-80
2022/11/14 09:43:46;;;;;;;1.15;0.70;;;7.40;99.90;;;;;;5094701;28;20621;-80
2022/11/14 09:46:20;;;;;;;1.33;0.85;;;7.40;99.90;;;;;;5095941;28;20202;-80
2022/11/14 09:48:47;;;;;;;0.40;0.40;;;7.60;99.90;;;;;;5099347;28;20209;-79
2022/11/14 09:51:19;;;;;;;1.07;0.83;;;7.60;99.90;;;;;;5109431;28;20611;-78
2022/11/14 09:53:52;;;;;;;1.80;1.27;;;7.80;99.90;;;;;;5103467;28;20607;-79
2022/11/14 09:56:24;;;;;;;0.60;0.60;;;7.80;99.90;;;;;;5103327;28;20718;-79
2022/11/14 09:58:51;;;;;;;0.60;0.57;;;7.90;99.90;;;;;;5100381;28;20672;-79
2022/11/14 10:01:30;;;;;;;0.90;0.87;;;7.90;99.90;;;;;;5099733;28;20667;-80
2022/11/14 10:04:03;;;;;;;1.27;0.63;;;8.10;99.90;;;;;;5109301;28;21020;-79
2022/11/14 10:06:33;;;;;;;2.70;1.30;;;8.10;99.90;;;;;;5107834;28;20637;-80
2022/11/14 10:09:19;;;;;;;6.33;2.50;;;8.20;99.90;;;;;;5109096;28;20619;-79
2022/11/14 10:11:54;;;;;;;1.70;1.60;;;8.20;99.90;;;;;;5102763;28;20979;-80
2022/11/14 10:14:44;;;;;;;1.23;1.13;;;8.30;99.90;;;;;;5106493;28;20615;-80
2022/11/14 10:17:24;;;;;;;2.70;1.40;;;8.50;99.90;;;;;;5099395;28;20634;-80
2022/11/14 10:20:00;;;;;;;1.90;1.80;;;8.50;99.90;;;;;;5104686;28;20663;-80
2022/11/14 10:22:48;;;;;;;1.80;1.70;;;8.60;99.90;;;;;;5091906;28;20715;-80
2022/11/14 10:25:23;;;;;;;2.00;1.63;;;8.70;99.90;;;;;;5093858;28;21063;-80
2022/11/14 10:28:04;;;;;;;2.97;2.63;;;9.00;99.90;;;;;;5107776;28;21593;-80
2022/11/14 10:30:39;;;;;;;2.53;2.43;;;9.30;99.90;;;;;;5097638;28;20744;-80
2022/11/14 10:33:20;;;;;;;2.30;2.10;;;9.00;99.90;;;;;;5107612;28;20623;-81
2022/11/14 10:35:55;;;;;;;3.50;1.50;;;9.00;99.90;;;;;;5104801;28;20694;-80
2022/11/14 10:38:28;;;;;;;2.33;1.57;;;9.00;99.90;;;;;;5088681;28;20976;-80
2022/11/14 10:41:00;;;;;;;2.20;1.60;;;8.90;99.90;;;;;;5103201;28;20720;-80
2022/11/14 10:43:34;;;;;;;1.93;1.73;;;8.90;99.90;;;;;;5095188;28;20723;-80
2022/11/14 10:46:07;;;;;;;2.60;1.20;;;9.00;99.90;;;;;;5103647;28;20612;-80
2022/11/14 10:48:38;;;;;;;1.70;1.60;;;9.00;99.90;;;;;;5099508;28;20631;-81
2022/11/14 10:51:12;;;;;;;2.33;2.00;;;9.00;99.90;;;;;;5096709;28;20803;-80
2022/11/14 10:53:48;;;;;;;1.53;1.30;;;9.10;99.90;;;;;;5107252;28;20619;-80
2022/11/14 10:56:15;;;;;;;1.73;1.60;;;9.30;99.90;;;;;;5102029;28;20652;-81
2022/11/14 10:58:43;;;;;;;2.70;2.00;;;9.20;99.90;;;;;;5097038;28;20764;-81
2022/11/14 11:01:33;;;;;;;1.80;1.60;;;9.20;99.90;;;;;;5106663;28;21205;-81
2022/11/14 11:04:12;;;;;;;5.70;2.37;;;9.40;99.90;;;;;;5105856;28;21189;-81
2022/11/14 11:06:39;;;;;;;1.33;1.10;;;9.50;99.90;;;;;;5095591;28;20698;-82
2022/11/14 11:11:57;;;;;;;1.47;0.90;;;9.60;99.90;;;;;;5088251;28;20611;-81
2022/11/14 11:14:23;;;;;;;0.77;0.63;;;9.90;99.90;;;;;;5099799;28;20732;-81
2022/11/14 11:17:08;;;;;;;1.10;1.10;;;10.00;99.90;;;;;;5097487;28;20624;-81
2022/11/14 11:19:36;;;;;;;1.10;1.00;;;10.10;99.90;;;;;;5107517;28;20773;-81
2022/11/14 11:22:04;;;;;;;1.10;1.00;;;10.10;99.90;;;;;;5101932;28;20640;-81
2022/11/14 11:24:32;;;;;;;0.83;0.83;;;10.20;99.90;;;;;;5088229;28;20709;-82
2022/11/14 11:27:22;;;;;;;0.83;0.73;;;10.20;99.90;;;;;;5106948;28;20718;-81
2022/11/14 11:30:03;;;;;;;2.60;1.63;;;10.10;99.90;;;;;;5104431;28;20638;-81
2022/11/14 11:32:30;;;;;;;0.80;0.73;;;10.10;99.90;;;;;;5094142;28;20686;-81
2022/11/14 11:35:02;;;;;;;0.90;0.90;;;10.00;99.90;;;;;;5102640;28;20746;-80
2022/11/14 11:37:32;;;;;;;0.60;0.60;;;10.10;99.90;;;;;;5105589;28;21020;-80
2022/11/14 11:40:03;;;;;;;1.97;1.13;;;10.10;99.90;;;;;;5097218;28;20738;-82
2022/11/14 11:42:37;;;;;;;1.73;1.63;;;10.10;99.90;;;;;;5094195;28;20624;-81
2022/11/14 11:45:11;;;;;;;0.70;0.70;;;10.10;99.90;;;;;;5087856;28;20616;-81
2022/11/14 11:47:41;;;;;;;1.00;1.00;;;10.00;99.90;;;;;;5103526;28;20684;-81
2022/11/14 11:50:19;;;;;;;1.20;1.00;;;10.00;99.90;;;;;;5096784;28;20616;-80
2022/11/14 11:52:51;;;;;;;1.50;1.40;;;9.80;99.90;;;;;;5095510;28;20613;-80
2022/11/14 11:55:22;;;;;;;1.17;1.07;;;9.80;99.90;;;;;;5090543;28;20651;-80
2022/11/14 11:57:57;;;;;;;1.57;1.47;;;9.80;99.90;;;;;;5105833;28;20623;-80
2022/11/14 12:00:25;;;;;;;0.80;0.80;;;9.80;99.90;;;;;;5098669;28;20659;-80
2022/11/14 12:02:53;;;;;;;1.07;0.90;;;9.90;99.90;;;;;;5098924;28;20620;-81
2022/11/14 12:05:28;;;;;;;0.83;0.83;;;9.70;99.90;;;;;;5105505;28;20711;-80
2022/11/14 12:08:03;;;;;;;0.70;0.70;;;9.80;99.90;;;;;;5106108;28;20743;-81
2022/11/14 12:10:32;;;;;;;0.57;0.57;;;9.80;99.90;;;;;;5106946;28;20625;-80
2022/11/14 12:13:27;;;;;;;0.70;0.63;;;9.90;99.90;;;;;;5096011;28;20717;-80
2022/11/14 12:16:07;;;;;;;0.60;0.60;;;10.60;99.90;;;;;;5087974;28;20711;-80
2022/11/14 12:19:07;;;;;;;0.60;0.60;;;9.90;99.90;;;;;;5095379;28;20735;-80
2022/11/14 12:21:47;;;;;;;1.97;1.87;;;10.30;99.90;;;;;;5106782;28;20615;-80
2022/11/14 12:24:51;;;;;;;0.60;0.60;;;10.00;99.90;;;;;;5098896;28;20726;-80
2022/11/14 12:27:40;;;;;;;0.80;0.80;;;10.10;99.90;;;;;;5100557;28;20812;-80
2022/11/14 12:30:13;;;;;;;1.63;0.80;;;10.30;99.90;;;;;;5097992;28;20627;-80
2022/11/14 12:32:45;;;;;;;0.87;0.87;;;10.20;99.90;;;;;;5087474;28;20612;-80
2022/11/14 12:35:19;;;;;;;1.37;1.27;;;10.20;99.90;;;;;;5097162;28;20764;-80
2022/11/14 12:37:49;;;;;;;0.67;0.63;;;10.40;99.90;;;;;;5105353;28;20718;-80
2022/11/14 12:40:31;;;;;;;0.70;0.70;;;10.50;99.90;;;;;;5093073;28;20658;-80
2022/11/14 12:43:00;;;;;;;1.53;0.80;;;10.40;99.90;;;;;;5086905;28;20613;-81
2022/11/14 12:45:59;;;;;;;0.90;0.90;;;10.50;99.90;;;;;;5094240;28;20643;-80
2022/11/14 12:48:32;;;;;;;1.40;1.23;;;10.30;99.90;;;;;;5086276;28;21190;-80
2022/11/14 12:51:01;;;;;;;1.00;0.70;;;10.50;99.90;;;;;;5097929;28;21244;-80
2022/11/14 12:53:53;;;;;;;1.70;1.20;;;10.60;99.90;;;;;;5107480;28;21229;-80
2022/11/14 12:56:53;;;;;;;1.50;0.97;;;10.70;99.90;;;;;;5080798;28;20642;-80
2022/11/14 12:59:34;;;;;;;0.80;0.50;;;10.70;99.90;;;;;;5104219;28;20678;-80
2022/11/14 13:02:35;;;;;;;0.80;0.70;;;10.80;99.90;;;;;;5092590;28;20719;-79
2022/11/14 13:05:36;;;;;;;0.50;0.50;;;10.80;99.90;;;;;;5087560;28;20652;-79
2022/11/14 13:08:20;;;;;;;0.50;0.50;;;11.00;99.90;;;;;;5090321;28;20722;-80
2022/11/14 13:10:49;;;;;;;0.80;0.60;;;9.80;99.90;;;;;;5109437;28;21339;-80